Latest Coastal Weather Observations for Frederick Reef

IDQ60701

Issued at 11:05 pm EST Saturday 26 July 2014 (issued every 10 minutes, with the page automatically refreshed every 10 minutes)

About coastal observations | Map of coastal stations | Coastal observations for QLD | Marine services | Other Formats
Station Details ID: 200701 Name: FREDERICK REEF Lat: -20.94 Lon: 154.40 Height: 4.9 m
Data from the previous 72 hours. | See also: Recent months for locations in Queensland
Date/Time
EST
Temp

°C
Wind Pressure Rain
since 9am
mm
Weather Cloud Vis
km
Sea
Height
m
Swell
Dir
 
Speed
knots
Gust
knots
hPa Trend Height
m
Period
s
Dir
26/11:00pm 22.2 E 18 20 1022.6 - - - - - - - - -
26/10:30pm 22.2 E 19 21 1022.7 - - - - - - - - -
26/10:00pm 22.3 E 19 22 1022.7 - - - - - - - - -
26/09:30pm 22.2 E 19 21 1023.1 - - - - - - - - -
26/09:00pm 22.3 E 18 21 1023.1 - - - - - - - - -
26/08:30pm 22.2 E 18 20 1023.3 - - - - - - - - -
26/08:00pm 22.3 E 18 20 1023.3 - - - - - - - - -
26/07:30pm 22.5 E 18 21 1023.1 - - - - - - - - -
26/07:00pm 22.3 ESE 17 20 1023.1 - - - - - - - - -
26/06:30pm 22.3 ESE 18 20 1022.8 - - - - - - - - -
26/06:00pm 22.3 E 19 22 1022.4 - - - - - - - - -
26/05:30pm 22.3 E 19 22 1022.1 - - - - - - - - -
26/05:00pm 22.3 ESE 19 21 1022.0 - - - - - - - - -
26/04:30pm 22.5 ESE 19 22 1021.8 - - - - - - - - -
26/04:00pm 22.7 ESE 19 22 1021.7 - - - - - - - - -
26/03:30pm 22.5 ESE 18 21 1021.4 - - - - - - - - -
26/03:00pm 22.4 ESE 18 20 1021.5 - - - - - - - - -
26/02:30pm 22.6 E 18 21 1021.6 - - - - - - - - -
26/02:00pm 22.6 E 18 21 1021.6 - - - - - - - - -
26/01:30pm 22.6 E 19 21 1021.7 - - - - - - - - -
26/01:00pm 22.6 E 20 22 1021.8 - - - - - - - - -
26/12:30pm 22.6 E 21 23 1022.2 - - - - - - - - -
26/12:00pm 22.6 E 20 23 1022.7 - - - - - - - - -
26/11:30am 22.6 E 20 24 1023.1 - - - - - - - - -
26/11:00am 22.4 E 22 25 1023.3 - - - - - - - - -
26/10:30am 22.4 E 22 25 1023.5 - - - - - - - - -
26/10:00am 22.4 E 22 25 1023.7 - - - - - - - - -
26/09:30am 22.6 E 23 26 1024.1 - - - - - - - - -
26/09:00am 22.4 E 25 28 1024.0 - - - - - - - - -
26/08:30am 22.5 E 26 31 1023.9 - - - - - - - - -
26/08:00am 22.5 E 24 28 1023.8 - - - - - - - - -
26/07:30am 22.4 E 24 27 1023.7 - - - - - - - - -
26/07:00am 22.3 E 24 27 1023.5 - - - - - - - - -
26/06:30am 22.2 E 23 26 1023.5 - - - - - - - - -
26/06:00am 22.1 E 23 26 1023.2 - - - - - - - - -
26/05:30am 22.3 E 24 28 1022.5 - - - - - - - - -
26/05:00am 22.1 E 24 27 1022.1 - - - - - - - - -
26/04:30am 22.0 E 25 27 1021.7 - - - - - - - - -
26/04:00am 21.8 E 25 30 1021.8 - - - - - - - - -
26/03:30am 21.5 E 23 27 1022.1 - - - - - - - - -
26/03:00am 20.6 E 22 25 1022.1 - - - - - - - - -
26/02:30am 20.4 E 19 25 1022.6 - - - - - - - - -
26/02:23am 21.1 E 15 25 1022.6 - - - - - - - - -
26/02:00am 20.5 ENE 17 20 1022.9 - - - - - - - - -
26/01:40am 21.7 E 15 25 1022.8 - - - - - - - - -
26/01:30am 20.5 ESE 13 17 1023.0 - - - - - - - - -
26/01:00am 20.9 E 21 25 1022.8 - - - - - - - - -
26/12:30am 21.8 E 23 26 1023.0 - - - - - - - - -
26/12:25am 22.5 ENE 21 24 1022.9 - - - - - - - - -
26/12:00am 22.4 E 23 25 1023.1 - - - - - - - - -
 
Date/Time
EST
Temp

°C
Wind Pressure Rain
since 9am
mm
Weather Cloud Vis
km
Sea
Height
m
Swell
Dir
 
Speed
knots
Gust
knots
hPa Trend Height
m
Period
s
Dir
25/11:30pm 22.3 E 22 25 1023.2 - - - - - - - - -
25/11:00pm 22.4 E 23 25 1023.2 - - - - - - - - -
25/10:30pm 22.6 E 22 26 1023.3 - - - - - - - - -
25/10:00pm 21.7 ESE 19 23 1023.3 - - - - - - - - -
25/09:44pm 21.0 E 19 25 1023.6 - - - - - - - - -
25/09:36pm 20.4 ENE 21 32 1023.5 - - - - - - - - -
25/09:30pm 21.4 E 23 33 1023.4 - - - - - - - - -
25/09:26pm 22.2 ESE 21 33 1023.5 - - - - - - - - -
25/09:00pm 22.2 ESE 21 25 1023.7 - - - - - - - - -
25/08:30pm 22.5 ESE 22 24 1023.4 - - - - - - - - -
25/08:00pm 22.5 ESE 22 26 1023.0 - - - - - - - - -
25/07:30pm 22.6 E 22 25 1022.6 - - - - - - - - -
25/07:00pm 22.6 E 21 24 1022.4 - - - - - - - - -
25/06:30pm 22.5 E 21 25 1022.1 - - - - - - - - -
25/06:00pm 22.6 E 23 25 1021.8 - - - - - - - - -
25/05:30pm 22.5 E 24 27 1021.6 - - - - - - - - -
25/05:00pm 22.4 E 23 26 1021.3 - - - - - - - - -
25/04:30pm 21.8 ESE 19 26 1021.2 - - - - - - - - -
25/04:27pm 22.0 ESE 22 32 1021.2 - - - - - - - - -
25/04:00pm 22.2 ESE 22 25 1021.0 - - - - - - - - -
25/03:30pm 22.3 ESE 21 25 1021.0 - - - - - - - - -
25/03:14pm 22.3 E 22 25 1021.0 - - - - - - - - -
25/03:00pm 21.9 SE 19 21 1021.2 - - - - - - - - -
25/02:30pm 21.9 ESE 20 23 1021.0 - - - - - - - - -
25/02:14pm 21.9 E 24 27 1020.9 - - - - - - - - -
25/02:00pm 22.1 ESE 20 24 1021.0 - - - - - - - - -
25/01:30pm 22.4 E 21 24 1021.3 - - - - - - - - -
25/01:00pm 22.5 ESE 20 22 1021.6 - - - - - - - - -
25/12:30pm 22.3 ESE 20 24 1021.7 - - - - - - - - -
25/12:00pm 22.3 ESE 21 24 1022.0 - - - - - - - - -
25/11:30am 21.8 ESE 19 22 1022.5 - - - - - - - - -
25/11:00am 22.0 E 20 24 1023.0 - - - - - - - - -
25/10:30am 21.8 ESE 21 23 1023.3 - - - - - - - - -
25/10:00am 21.6 SE 17 19 1023.5 - - - - - - - - -
25/09:30am 21.9 E 19 25 1023.4 - - - - - - - - -
25/09:20am 21.9 E 17 27 1023.3 - - - - - - - - -
25/09:00am 21.5 E 18 21 1023.5 - - - - - - - - -
25/08:30am 22.5 E 18 22 1023.4 - - - - - - - - -
25/08:00am 21.8 ESE 15 20 1023.0 - - - - - - - - -
25/07:30am 21.7 E 15 18 1022.8 - - - - - - - - -
25/07:00am 21.3 ESE 22 26 1022.0 - - - - - - - - -
25/06:30am 21.5 ESE 19 22 1021.9 - - - - - - - - -
25/06:00am 21.6 E 19 22 1021.6 - - - - - - - - -
25/05:59am 21.6 E 20 22 1021.5 - - - - - - - - -
25/05:30am 21.8 SE 19 22 1021.3 - - - - - - - - -
25/05:00am 21.6 ESE 16 20 1021.0 - - - - - - - - -
25/04:30am 21.8 ESE 16 18 1020.6 - - - - - - - - -
25/04:00am 21.8 ESE 15 19 1020.5 - - - - - - - - -
25/03:30am 21.6 ESE 17 22 1020.6 - - - - - - - - -
25/12:00am 22.4 ESE 20 22 1021.3 - - - - - - - - -
 
Date/Time
EST
Temp

°C
Wind Pressure Rain
since 9am
mm
Weather Cloud Vis
km
Sea
Height
m
Swell
Dir
 
Speed
knots
Gust
knots
hPa Trend Height
m
Period
s
Dir
24/11:30pm 22.2 E 17 22 1021.4 - - - - - - - - -
24/11:00pm 22.1 ESE 18 21 1021.3 - - - - - - - - -
24/10:30pm 22.0 E 18 24 1021.5 - - - - - - - - -
24/10:00pm 22.1 E 20 23 1021.5 - - - - - - - - -
24/09:30pm 22.2 ESE 18 21 1021.4 - - - - - - - - -
24/09:00pm 22.3 ESE 18 20 1021.3 - - - - - - - - -
24/08:30pm 22.3 ESE 19 21 1021.0 - - - - - - - - -
24/08:00pm 22.2 ESE 18 20 1021.0 - - - - - - - - -
24/07:30pm 22.0 ESE 19 22 1020.8 - - - - - - - - -
24/07:00pm 22.1 ESE 17 19 1020.4 - - - - - - - - -
24/06:30pm 21.9 E 13 16 1020.1 - - - - - - - - -
24/06:00pm 21.7 ESE 17 19 1019.8 - - - - - - - - -
24/05:30pm 22.2 ESE 18 20 1019.3 - - - - - - - - -
24/05:00pm 22.2 E 17 19 1018.9 - - - - - - - - -
24/04:30pm 22.1 E 15 18 1018.5 - - - - - - - - -
24/04:00pm 22.1 E 15 17 1018.2 - - - - - - - - -
24/03:30pm 22.1 E 15 17 1018.0 - - - - - - - - -
24/03:00pm 21.9 E 18 22 1017.8 - - - - - - - - -
24/02:30pm 21.8 ESE 16 18 1017.6 - - - - - - - - -
24/02:00pm 22.0 ESE 16 19 1017.7 - - - - - - - - -
24/01:30pm 22.1 E 15 19 1018.0 - - - - - - - - -
24/01:00pm 21.6 E 17 19 1018.2 - - - - - - - - -
24/12:30pm 21.7 E 16 18 1018.7 - - - - - - - - -
24/12:00pm 21.6 E 20 23 1019.2 - - - - - - - - -
24/11:30am 21.7 ESE 16 19 1019.6 - - - - - - - - -
24/11:00am 22.0 E 13 17 1019.9 - - - - - - - - -
24/10:30am 22.0 E 14 17 1020.2 - - - - - - - - -
24/10:00am 22.0 ESE 14 17 1020.4 - - - - - - - - -
24/09:30am 22.0 ESE 13 16 1020.3 - - - - - - - - -
24/09:00am 21.9 ESE 14 17 1020.2 - - - - - - - - -
24/08:30am 21.7 ESE 16 19 1020.1 - - - - - - - - -
24/08:00am 21.6 ESE 16 18 1019.9 - - - - - - - - -
24/07:30am 21.6 ESE 14 18 1019.8 - - - - - - - - -
24/07:00am 21.4 ESE 15 20 1019.4 - - - - - - - - -
24/06:30am 21.3 ESE 15 17 1019.0 - - - - - - - - -
24/06:00am 21.4 ESE 15 17 1018.5 - - - - - - - - -
24/05:30am 21.3 ESE 16 19 1018.3 - - - - - - - - -
24/05:00am 21.3 SE 14 17 1018.0 - - - - - - - - -
24/04:30am 21.5 ESE 14 17 1017.7 - - - - - - - - -
24/04:00am 21.3 ESE 14 17 1017.5 - - - - - - - - -
24/03:30am 21.4 ESE 15 17 1017.6 - - - - - - - - -
24/03:00am 21.7 ESE 16 19 1017.5 - - - - - - - - -
24/02:30am 21.5 SE 16 19 1017.6 - - - - - - - - -
24/02:00am 21.4 ESE 16 19 1017.8 - - - - - - - - -
24/01:30am 21.5 SE 17 19 1017.9 - - - - - - - - -
24/01:00am 21.5 SE 18 20 1018.1 - - - - - - - - -
24/12:30am 21.6 SE 17 22 1018.3 - - - - - - - - -
24/12:00am 21.4 ESE 18 21 1018.3 - - - - - - - - -
 
Date/Time
EST
Temp

°C
Wind Pressure Rain
since 9am
mm
Weather Cloud Vis
km
Sea
Height
m
Swell
Dir
 
Speed
knots
Gust
knots
hPa Trend Height
m
Period
s
Dir
23/11:30pm 21.4 SE 18 21 1018.4 - - - - - - - - -

Other Formats:

Comma delimited format used in spreadsheet applications
http://www.bom.gov.au/fwo/IDQ60701/IDQ60701.94393.axf

JavaScript Object Notation format (JSON) in row-major order
http://www.bom.gov.au/fwo/IDQ60701/IDQ60701.94393.json